Time;durP1;ratioP1;P1;durP2;ratioP2;P2;SDS_P1;SDS_P2;PMS_P1;PMS_P2;Temp;Humidity;BMP_temperature;BMP_pressure;BME280_temperature;BME280_humidity;BME280_pressure;Samples;Min_cycle;Max_cycle;Signal;HPM_P1;HPM_P2
2022/11/10 00:00:11;;;;;;;3.17;2.80;;;14.90;99.90;;;;;;5084118;28;20553;-78
2022/11/10 00:02:38;;;;;;;4.93;4.30;;;14.90;99.90;;;;;;5086884;28;20478;-80
2022/11/10 00:05:09;;;;;;;5.40;3.40;;;14.90;99.90;;;;;;5087038;28;20458;-77
2022/11/10 00:07:39;;;;;;;2.90;2.60;;;14.80;99.90;;;;;;5085951;28;20953;-79
2022/11/10 00:10:07;;;;;;;1.93;1.70;;;14.80;99.90;;;;;;5081944;28;20561;-80
2022/11/10 00:12:34;;;;;;;3.87;3.00;;;14.80;99.90;;;;;;5077260;28;20473;-79
2022/11/10 00:17:46;;;;;;;29.47;20.53;;;14.80;99.90;;;;;;5074641;28;20943;-80
2022/11/10 00:20:13;;;;;;;15.90;12.70;;;14.80;99.90;;;;;;5087378;28;20469;-79
2022/11/10 00:22:42;;;;;;;8.07;6.33;;;14.80;99.90;;;;;;5074486;28;20470;-80
2022/11/10 00:25:09;;;;;;;7.13;5.80;;;14.80;99.90;;;;;;5082704;28;20480;-80
2022/11/10 00:27:36;;;;;;;5.20;3.97;;;14.80;99.90;;;;;;5087965;28;20862;-80
2022/11/10 00:30:05;;;;;;;3.60;2.80;;;14.80;99.90;;;;;;5074767;28;20516;-79
2022/11/10 00:32:32;;;;;;;3.10;2.60;;;14.80;99.90;;;;;;5073823;28;20476;-80
2022/11/10 00:34:59;;;;;;;2.20;1.67;;;14.80;99.90;;;;;;5074329;28;20473;-79
2022/11/10 00:37:26;;;;;;;2.47;2.27;;;14.80;99.90;;;;;;5093045;28;20493;-76
2022/11/10 00:39:54;;;;;;;2.43;2.23;;;14.80;99.90;;;;;;5094263;28;20454;-80
2022/11/10 00:42:24;;;;;;;2.00;1.80;;;14.80;99.90;;;;;;5094092;28;20465;-81
2022/11/10 00:44:51;;;;;;;4.80;3.83;;;14.80;99.90;;;;;;5093036;28;20445;-80
2022/11/10 00:47:18;;;;;;;6.00;3.40;;;14.90;99.90;;;;;;5093943;28;20485;-80
2022/11/10 00:49:45;;;;;;;3.67;2.23;;;14.90;99.90;;;;;;5092832;28;20473;-80
2022/11/10 00:52:12;;;;;;;3.63;2.87;;;14.90;99.90;;;;;;5090322;28;20484;-80
2022/11/10 00:54:40;;;;;;;3.43;2.50;;;14.90;99.90;;;;;;5092744;28;20473;-79
2022/11/10 00:57:09;;;;;;;5.37;4.70;;;14.90;99.90;;;;;;5083253;28;20467;-76
2022/11/10 00:59:35;;;;;;;4.60;3.83;;;14.90;99.90;;;;;;5075217;28;20517;-76
2022/11/10 01:02:03;;;;;;;30.20;19.70;;;14.90;99.90;;;;;;5088023;28;20474;-80
2022/11/10 01:04:32;;;;;;;9.90;6.93;;;14.90;99.90;;;;;;5092806;28;20465;-77
2022/11/10 01:07:01;;;;;;;9.40;7.10;;;14.90;99.90;;;;;;5093175;28;20468;-75
2022/11/10 01:09:32;;;;;;;8.93;5.10;;;14.90;99.90;;;;;;5091000;28;20481;-77
2022/11/10 01:11:59;;;;;;;5.67;3.90;;;15.00;99.90;;;;;;5083227;28;20541;-76
2022/11/10 01:14:28;;;;;;;19.77;14.93;;;15.00;99.90;;;;;;5076540;28;20462;-77
2022/11/10 01:16:55;;;;;;;29.40;24.10;;;15.00;99.90;;;;;;5083714;28;20497;-77
2022/11/10 01:19:22;;;;;;;25.07;19.10;;;15.00;99.90;;;;;;5080010;28;20453;-77
2022/11/10 01:21:50;;;;;;;12.57;8.73;;;15.00;99.90;;;;;;5082974;28;20550;-80
2022/11/10 01:24:22;;;;;;;14.80;12.77;;;15.00;99.90;;;;;;5079402;28;20466;-80
2022/11/10 01:26:49;;;;;;;10.00;8.43;;;15.00;99.90;;;;;;5077881;28;20465;-80
2022/11/10 01:29:16;;;;;;;8.27;5.90;;;15.00;99.90;;;;;;5086020;28;20959;-80
2022/11/10 01:31:44;;;;;;;5.03;4.07;;;15.00;99.90;;;;;;5073600;28;20466;-80
2022/11/10 01:34:16;;;;;;;4.10;2.70;;;15.00;99.90;;;;;;5080149;28;20943;-76
2022/11/10 01:36:44;;;;;;;3.13;2.47;;;15.00;99.90;;;;;;5079019;28;20549;-80
2022/11/10 01:39:11;;;;;;;5.27;4.30;;;15.00;99.90;;;;;;5085577;28;20473;-76
2022/11/10 01:41:38;;;;;;;6.40;4.80;;;15.00;99.90;;;;;;5086000;28;20473;-76
2022/11/10 01:44:17;;;;;;;6.63;4.57;;;15.00;99.90;;;;;;5080915;28;20978;-80
2022/11/10 01:46:45;;;;;;;7.93;4.90;;;15.00;99.90;;;;;;5079598;28;20458;-77
2022/11/10 01:49:15;;;;;;;5.57;3.83;;;15.00;99.90;;;;;;5085386;28;20466;-81
2022/11/10 01:51:47;;;;;;;4.20;3.30;;;15.00;99.90;;;;;;5078688;28;20556;-80
2022/11/10 01:54:20;;;;;;;3.40;2.70;;;15.00;99.90;;;;;;5083770;28;20535;-77
2022/11/10 01:56:50;;;;;;;3.97;3.00;;;15.00;99.90;;;;;;5091714;28;20481;-76
2022/11/10 01:59:22;;;;;;;2.50;1.40;;;15.10;99.90;;;;;;5092972;28;20546;-80
2022/11/10 02:01:54;;;;;;;4.53;3.03;;;15.00;99.90;;;;;;5078920;28;20548;-77
2022/11/10 02:04:22;;;;;;;5.10;2.40;;;15.00;99.90;;;;;;5081720;28;20477;-81
2022/11/10 02:06:50;;;;;;;6.63;2.90;;;15.00;99.90;;;;;;5079454;28;20461;-77
2022/11/10 02:09:18;;;;;;;3.37;1.73;;;15.00;99.90;;;;;;5077762;28;20471;-78
2022/11/10 02:11:46;;;;;;;2.50;1.67;;;15.00;99.90;;;;;;5092799;28;20465;-80
2022/11/10 02:14:14;;;;;;;3.70;1.70;;;15.00;99.90;;;;;;5079713;28;20827;-80
2022/11/10 02:16:42;;;;;;;4.47;1.70;;;15.00;99.90;;;;;;5084794;28;20532;-80
2022/11/10 02:19:21;;;;;;;1.83;1.63;;;15.00;99.90;;;;;;5086611;28;20523;-80
2022/11/10 02:21:50;;;;;;;1.97;1.70;;;15.00;99.90;;;;;;5082030;28;20958;-80
2022/11/10 02:24:18;;;;;;;3.93;1.77;;;15.00;99.90;;;;;;5093110;28;20545;-80
2022/11/10 02:26:49;;;;;;;3.00;2.20;;;15.00;99.90;;;;;;5081978;28;20470;-77
2022/11/10 02:29:16;;;;;;;3.23;2.20;;;15.00;99.90;;;;;;5085730;28;20538;-77
2022/11/10 02:31:43;;;;;;;6.23;2.70;;;15.00;99.90;;;;;;5083090;28;20466;-77
2022/11/10 02:34:10;;;;;;;3.47;2.60;;;14.90;99.90;;;;;;5088112;28;20960;-77
2022/11/10 02:36:37;;;;;;;5.43;2.70;;;14.90;99.90;;;;;;5083666;28;20969;-79
2022/11/10 02:39:06;;;;;;;6.13;3.20;;;14.90;99.90;;;;;;5089358;28;20542;-77
2022/11/10 02:41:33;;;;;;;4.20;3.17;;;14.90;99.90;;;;;;5083254;28;20483;-78
2022/11/10 02:44:01;;;;;;;6.20;2.70;;;14.90;99.90;;;;;;5090708;28;20544;-77
2022/11/10 02:46:28;;;;;;;11.13;8.03;;;14.90;99.90;;;;;;5090590;28;20547;-80
2022/11/10 02:48:55;;;;;;;24.93;16.50;;;14.90;99.90;;;;;;5091811;28;20477;-77
2022/11/10 02:51:23;;;;;;;12.17;10.37;;;15.00;99.90;;;;;;5092440;28;20470;-77
2022/11/10 02:53:50;;;;;;;16.03;12.17;;;14.90;99.90;;;;;;5090580;28;20485;-80
2022/11/10 02:56:19;;;;;;;12.73;8.60;;;14.90;99.90;;;;;;5092117;28;21007;-81
2022/11/10 02:58:47;;;;;;;6.77;6.07;;;15.00;99.90;;;;;;5091229;28;20968;-81
2022/11/10 03:01:14;;;;;;;12.13;8.40;;;14.90;99.90;;;;;;5096339;28;20477;-80
2022/11/10 03:03:41;;;;;;;17.70;13.27;;;14.90;99.90;;;;;;5095260;28;20489;-77
2022/11/10 03:06:08;;;;;;;15.53;11.33;;;14.90;99.90;;;;;;5096571;28;20489;-80
2022/11/10 03:08:36;;;;;;;13.40;10.33;;;14.90;99.90;;;;;;5096601;28;20473;-80
2022/11/10 03:11:05;;;;;;;24.13;16.20;;;14.90;99.90;;;;;;5094320;28;20476;-79
2022/11/10 03:13:34;;;;;;;11.37;8.70;;;14.90;99.90;;;;;;5096253;28;21008;-77
2022/11/10 03:16:02;;;;;;;10.67;8.57;;;14.90;99.90;;;;;;5095274;28;20529;-76
2022/11/10 03:18:31;;;;;;;11.60;7.77;;;14.90;99.90;;;;;;5097780;28;20465;-76
2022/11/10 03:20:59;;;;;;;7.60;4.77;;;14.90;99.90;;;;;;5096719;28;20961;-78
2022/11/10 03:23:29;;;;;;;4.83;3.67;;;14.90;99.90;;;;;;5096870;28;20465;-80
2022/11/10 03:25:56;;;;;;;3.43;2.13;;;14.90;99.90;;;;;;5094753;28;20788;-80
2022/11/10 03:28:23;;;;;;;2.60;2.40;;;14.90;99.90;;;;;;5096656;28;20560;-76
2022/11/10 03:30:52;;;;;;;2.70;2.20;;;14.90;99.90;;;;;;5096772;28;20548;-80
2022/11/10 03:33:21;;;;;;;6.17;3.07;;;14.90;99.90;;;;;;5096468;28;20476;-76
2022/11/10 03:35:48;;;;;;;3.87;2.63;;;14.80;99.90;;;;;;5096069;28;20469;-77
2022/11/10 03:38:15;;;;;;;6.10;4.33;;;14.80;99.90;;;;;;5095391;28;20453;-76
2022/11/10 03:40:43;;;;;;;3.73;2.80;;;14.80;99.90;;;;;;5096446;28;20465;-80
2022/11/10 03:43:12;;;;;;;5.10;2.73;;;14.80;99.90;;;;;;5095401;28;20470;-80
2022/11/10 03:45:39;;;;;;;5.00;2.73;;;14.80;99.90;;;;;;5096536;28;20473;-80
2022/11/10 03:48:07;;;;;;;4.53;2.17;;;14.80;99.90;;;;;;5090674;28;20465;-77
2022/11/10 03:50:35;;;;;;;4.03;1.90;;;14.80;99.90;;;;;;5076128;28;20576;-80
2022/11/10 03:53:05;;;;;;;4.70;3.17;;;14.80;99.90;;;;;;5075206;28;20521;-80
2022/11/10 03:55:32;;;;;;;3.73;2.80;;;14.70;99.90;;;;;;5075723;28;20509;-77
2022/11/10 03:58:02;;;;;;;4.77;2.13;;;14.70;99.90;;;;;;5073159;28;20474;-80
2022/11/10 04:00:29;;;;;;;2.07;1.77;;;14.70;99.90;;;;;;5078186;28;20454;-81
2022/11/10 04:02:59;;;;;;;5.80;2.00;;;14.70;99.90;;;;;;5095143;28;20476;-80
2022/11/10 04:10:58;;;;;;;4.00;2.43;;;14.60;99.90;;;;;;5094424;28;20472;-79
2022/11/10 04:16:09;;;;;;;2.97;1.93;;;14.60;99.90;;;;;;5084685;28;20797;-79
2022/11/10 04:18:37;;;;;;;3.73;2.07;;;14.60;99.90;;;;;;5076328;28;20459;-80
2022/11/10 04:21:06;;;;;;;4.13;2.17;;;14.60;99.90;;;;;;5078178;28;20809;-79
2022/11/10 04:23:36;;;;;;;4.33;3.10;;;14.50;99.90;;;;;;5073436;28;20783;-77
2022/11/10 04:28:57;;;;;;;4.23;3.27;;;14.50;99.90;;;;;;5089788;28;21048;-76
2022/11/10 04:31:25;;;;;;;6.30;2.83;;;14.50;99.90;;;;;;5093183;28;20457;-76
2022/11/10 04:33:53;;;;;;;10.90;2.90;;;14.50;99.90;;;;;;5093173;28;20481;-76
2022/11/10 04:36:30;;;;;;;8.20;3.67;;;14.50;99.90;;;;;;5093865;28;20526;-76
2022/11/10 04:38:57;;;;;;;5.50;3.43;;;14.40;99.90;;;;;;5095087;28;20457;-79
2022/11/10 04:41:26;;;;;;;5.30;3.10;;;14.40;99.90;;;;;;5077183;28;20526;-76
2022/11/10 04:43:58;;;;;;;2.90;2.40;;;14.40;99.90;;;;;;5096045;28;20469;-76
2022/11/10 04:46:28;;;;;;;3.60;2.47;;;14.30;99.90;;;;;;5097337;28;20457;-79
2022/11/10 04:48:56;;;;;;;6.50;2.77;;;14.30;99.90;;;;;;5095899;28;20477;-77
2022/11/10 04:51:26;;;;;;;4.17;2.40;;;14.30;99.90;;;;;;5095932;28;20474;-80
2022/11/10 04:53:54;;;;;;;3.03;2.47;;;14.30;99.90;;;;;;5097360;28;20867;-80
2022/11/10 04:56:24;;;;;;;3.63;2.17;;;14.30;99.90;;;;;;5095325;28;20489;-77
2022/11/10 04:58:51;;;;;;;4.63;2.27;;;14.20;99.90;;;;;;5097609;28;20501;-80
2022/11/10 05:01:21;;;;;;;4.40;2.40;;;14.20;99.90;;;;;;5095799;28;21025;-80
2022/11/10 05:03:49;;;;;;;3.40;2.20;;;14.20;99.90;;;;;;5096288;28;20507;-80
2022/11/10 05:06:17;;;;;;;2.40;2.00;;;14.20;99.90;;;;;;5095961;28;20507;-79
2022/11/10 05:08:47;;;;;;;4.50;2.43;;;14.20;99.90;;;;;;5096661;28;20484;-77
2022/11/10 05:11:16;;;;;;;2.47;2.28;;;14.10;99.90;;;;;;5095822;28;20465;-77
2022/11/10 05:13:45;;;;;;;2.70;2.37;;;14.20;99.90;;;;;;5095349;28;20577;-80
2022/11/10 05:16:13;;;;;;;5.43;3.00;;;14.10;99.90;;;;;;5093458;28;20561;-79
2022/11/10 05:18:44;;;;;;;2.50;2.30;;;14.10;99.90;;;;;;5094878;28;20465;-77
2022/11/10 05:21:11;;;;;;;3.50;2.50;;;14.00;99.90;;;;;;5093369;28;20803;-77
2022/11/10 05:23:38;;;;;;;5.30;3.03;;;14.00;99.90;;;;;;5093211;28;20477;-80
2022/11/10 05:26:06;;;;;;;4.60;2.97;;;14.00;99.90;;;;;;5094886;28;20511;-80
2022/11/10 05:28:34;;;;;;;5.33;2.80;;;14.00;99.90;;;;;;5093168;28;20460;-80
2022/11/10 05:31:02;;;;;;;4.40;3.60;;;14.00;99.90;;;;;;5095008;28;20473;-80
2022/11/10 05:33:45;;;;;;;5.77;3.33;;;13.90;99.90;;;;;;5085358;28;20478;-82
2022/11/10 05:36:12;;;;;;;7.73;3.40;;;13.90;99.90;;;;;;5094200;28;20499;-79
2022/11/10 05:38:39;;;;;;;8.23;3.30;;;13.90;99.90;;;;;;5095110;28;20498;-76
2022/11/10 05:41:08;;;;;;;6.53;3.20;;;13.90;99.90;;;;;;5094668;28;20497;-76
2022/11/10 05:43:37;;;;;;;7.27;5.87;;;13.90;99.90;;;;;;5093585;28;20470;-77
2022/11/10 05:46:04;;;;;;;5.78;3.95;;;13.90;99.90;;;;;;5095224;28;20466;-80
2022/11/10 05:48:31;;;;;;;4.07;3.67;;;13.90;99.90;;;;;;5095407;28;20242;-78
2022/11/10 05:51:00;;;;;;;4.77;3.53;;;13.80;99.90;;;;;;5100291;28;20556;-79
2022/11/10 05:53:29;;;;;;;5.43;3.47;;;13.80;99.90;;;;;;5104684;28;20466;-77
2022/11/10 05:55:59;;;;;;;7.93;3.97;;;13.80;99.90;;;;;;5106449;28;20514;-77
2022/11/10 06:00:56;;;;;;;7.03;3.90;;;13.80;99.90;;;;;;5078660;28;20910;-82
2022/11/10 06:03:23;;;;;;;10.20;5.20;;;13.80;99.90;;;;;;5080246;28;20457;-77
2022/11/10 06:05:50;;;;;;;5.83;4.13;;;13.80;99.90;;;;;;5079279;28;20467;-80
2022/11/10 06:08:18;;;;;;;6.90;4.00;;;13.80;99.90;;;;;;5078471;28;20545;-80
2022/11/10 06:10:48;;;;;;;9.60;4.47;;;13.80;99.90;;;;;;5076829;28;20467;-79
2022/11/10 06:13:15;;;;;;;11.30;4.70;;;13.80;99.90;;;;;;5079901;28;20469;-80
2022/11/10 06:15:42;;;;;;;6.47;4.40;;;13.70;99.90;;;;;;5081035;28;20478;-77
2022/11/10 06:18:11;;;;;;;8.00;4.30;;;13.70;99.90;;;;;;5080967;28;20470;-77
2022/11/10 06:20:41;;;;;;;6.83;3.20;;;13.70;99.90;;;;;;5087497;28;20477;-77
2022/11/10 06:23:11;;;;;;;11.23;3.40;;;13.70;99.90;;;;;;5080041;28;20500;-77
2022/11/10 06:25:40;;;;;;;4.60;3.80;;;13.70;99.90;;;;;;5078646;28;20470;-77
2022/11/10 06:28:08;;;;;;;6.20;3.90;;;13.70;99.90;;;;;;5078459;28;20843;-77
2022/11/10 06:30:37;;;;;;;7.00;4.67;;;13.70;99.90;;;;;;5078949;28;20258;-77
2022/11/10 06:33:05;;;;;;;4.18;3.28;;;13.60;99.90;;;;;;5074522;28;20527;-80
2022/11/10 06:35:35;;;;;;;5.30;3.40;;;13.60;99.90;;;;;;5076500;28;20228;-76
2022/11/10 06:38:04;;;;;;;10.77;4.38;;;13.70;99.90;;;;;;5076415;28;20462;-80
2022/11/10 06:40:31;;;;;;;7.82;3.85;;;13.60;99.90;;;;;;5077786;28;20648;-79
2022/11/10 06:42:58;;;;;;;6.90;4.55;;;13.60;99.90;;;;;;5067098;28;20251;-81
2022/11/10 06:45:27;;;;;;;5.90;4.00;;;13.60;99.90;;;;;;5077983;28;20227;-81
2022/11/10 06:48:01;;;;;;;5.10;3.00;;;13.60;99.90;;;;;;5076969;28;20223;-77
2022/11/10 06:50:28;;;;;;;6.22;3.40;;;13.60;99.90;;;;;;5076676;28;20225;-78
2022/11/10 06:52:58;;;;;;;4.28;3.05;;;13.60;99.90;;;;;;5076721;28;20224;-77
2022/11/10 06:55:32;;;;;;;6.95;4.47;;;13.60;99.90;;;;;;5077657;28;20676;-80
2022/11/10 06:58:00;;;;;;;5.30;4.28;;;13.60;99.90;;;;;;5076906;28;20247;-80
2022/11/10 07:00:29;;;;;;;6.07;4.55;;;13.60;99.90;;;;;;5076895;28;20232;-81
2022/11/10 07:03:01;;;;;;;5.93;4.05;;;13.60;99.90;;;;;;5076852;28;20664;-81
2022/11/10 07:05:28;;;;;;;5.57;5.07;;;13.60;99.90;;;;;;5076843;28;20299;-77
2022/11/10 07:07:56;;;;;;;5.50;4.57;;;13.60;99.90;;;;;;5077073;28;20235;-78
2022/11/10 07:10:24;;;;;;;5.97;4.17;;;13.60;99.90;;;;;;5077173;28;20322;-78
2022/11/10 07:12:57;;;;;;;7.20;4.37;;;13.60;99.90;;;;;;5076769;28;20470;-77
2022/11/10 07:15:29;;;;;;;9.60;4.70;;;13.60;99.90;;;;;;5078009;28;20466;-81
2022/11/10 07:17:57;;;;;;;4.50;3.50;;;13.60;99.90;;;;;;5076326;28;20478;-80
2022/11/10 07:20:25;;;;;;;4.60;3.95;;;13.60;99.90;;;;;;5077517;28;20227;-81
2022/11/10 07:23:00;;;;;;;7.03;4.00;;;13.60;99.90;;;;;;5076318;28;20291;-81
2022/11/10 07:25:28;;;;;;;8.43;3.92;;;13.60;99.90;;;;;;5076382;28;20800;-77
2022/11/10 07:27:55;;;;;;;7.68;6.90;;;13.60;99.90;;;;;;5074592;28;20228;-77
2022/11/10 07:30:23;;;;;;;10.48;4.70;;;13.60;99.90;;;;;;5075769;28;20216;-77
2022/11/10 07:32:58;;;;;;;4.30;3.53;;;13.70;99.90;;;;;;5076055;28;20341;-76
2022/11/10 07:35:27;;;;;;;9.60;4.83;;;13.70;99.90;;;;;;5076029;28;20493;-76
2022/11/10 07:37:55;;;;;;;8.30;4.20;;;13.70;99.90;;;;;;5075311;28;20470;-76
2022/11/10 07:40:24;;;;;;;6.72;3.72;;;13.70;99.90;;;;;;5075599;28;20466;-76
2022/11/10 07:42:51;;;;;;;6.70;4.20;;;13.80;99.90;;;;;;5075565;28;20219;-77
2022/11/10 07:45:19;;;;;;;6.43;3.40;;;13.80;99.90;;;;;;5075760;28;20262;-80
2022/11/10 07:47:46;;;;;;;5.63;2.87;;;13.80;99.90;;;;;;5075537;28;20493;-79
2022/11/10 07:50:13;;;;;;;9.10;3.50;;;13.80;99.90;;;;;;5076591;28;20470;-79
2022/11/10 07:52:40;;;;;;;6.63;3.40;;;13.80;99.90;;;;;;5076767;28;20478;-79
2022/11/10 07:55:08;;;;;;;6.10;3.77;;;13.80;99.90;;;;;;5076382;28;20577;-79
2022/11/10 07:57:36;;;;;;;12.37;5.13;;;13.80;99.90;;;;;;5075326;28;21028;-75
2022/11/10 08:00:04;;;;;;;9.30;4.80;;;13.80;99.90;;;;;;5075801;28;20811;-76
2022/11/10 08:02:31;;;;;;;5.87;3.60;;;13.80;99.90;;;;;;5076517;28;20466;-76
2022/11/10 08:04:58;;;;;;;6.67;4.00;;;13.80;99.90;;;;;;5076261;28;20470;-76
2022/11/10 08:07:25;;;;;;;8.53;5.63;;;13.80;99.90;;;;;;5077752;28;20549;-76
2022/11/10 08:09:52;;;;;;;6.63;4.90;;;13.80;99.90;;;;;;5076763;28;20809;-76
2022/11/10 08:12:20;;;;;;;5.73;4.33;;;13.80;99.90;;;;;;5076021;28;20454;-77
2022/11/10 08:14:48;;;;;;;6.03;4.10;;;13.90;99.90;;;;;;5077206;28;20824;-77
2022/11/10 08:17:15;;;;;;;6.63;5.03;;;13.90;99.90;;;;;;5075329;28;20500;-77
2022/11/10 08:20:10;;;;;;;7.30;4.90;;;13.90;99.90;;;;;;5074843;28;20539;-77
2022/11/10 08:22:37;;;;;;;6.13;4.70;;;13.90;99.90;;;;;;5075708;28;20788;-77
2022/11/10 08:25:05;;;;;;;6.43;5.73;;;13.90;99.90;;;;;;5075692;28;20454;-76
2022/11/10 08:27:31;;;;;;;9.67;6.37;;;13.90;99.90;;;;;;5076074;28;20494;-80
2022/11/10 08:30:00;;;;;;;12.40;6.17;;;13.90;99.90;;;;;;5076003;28;20455;-80
2022/11/10 08:32:27;;;;;;;9.93;5.37;;;13.90;99.90;;;;;;5076931;28;20501;-80
2022/11/10 08:34:54;;;;;;;12.70;7.67;;;13.90;99.90;;;;;;5075965;28;20811;-80
2022/11/10 08:37:22;;;;;;;10.18;6.85;;;13.90;99.90;;;;;;5075510;28;20969;-80
2022/11/10 08:39:49;;;;;;;11.60;7.23;;;13.90;99.90;;;;;;5075287;28;20234;-80
2022/11/10 08:42:16;;;;;;;9.40;6.00;;;14.00;99.90;;;;;;5075588;28;20497;-80
2022/11/10 08:44:43;;;;;;;8.83;5.60;;;14.00;99.90;;;;;;5075658;28;20465;-80
2022/11/10 08:47:12;;;;;;;6.93;5.20;;;14.10;99.90;;;;;;5075123;28;20846;-80
2022/11/10 08:49:39;;;;;;;9.30;5.03;;;14.10;99.90;;;;;;5075599;28;20550;-79
2022/11/10 08:52:06;;;;;;;9.17;6.17;;;14.10;99.90;;;;;;5075224;28;20988;-80
2022/11/10 08:54:33;;;;;;;6.65;4.90;;;14.10;99.90;;;;;;5075972;28;20804;-76
2022/11/10 08:57:00;;;;;;;7.53;4.70;;;14.10;99.90;;;;;;5074210;28;20228;-80
2022/11/10 08:59:27;;;;;;;6.60;4.53;;;14.20;99.90;;;;;;5074732;28;20501;-77
2022/11/10 09:01:54;;;;;;;5.87;4.40;;;14.20;99.90;;;;;;5074146;28;20492;-76
2022/11/10 09:04:24;;;;;;;5.53;5.00;;;14.20;99.90;;;;;;5074359;28;20490;-77
2022/11/10 09:06:51;;;;;;;6.20;4.33;;;14.20;99.90;;;;;;5073911;28;20526;-79
2022/11/10 09:09:18;;;;;;;6.37;4.73;;;14.30;99.90;;;;;;5073855;28;20474;-79
2022/11/10 09:11:45;;;;;;;5.50;5.00;;;14.30;99.90;;;;;;5073453;28;20470;-79
2022/11/10 09:14:12;;;;;;;6.87;3.83;;;14.40;99.90;;;;;;5073823;28;20501;-80
2022/11/10 09:16:39;;;;;;;4.60;3.70;;;14.40;99.90;;;;;;5073892;28;20477;-79
2022/11/10 09:19:07;;;;;;;5.70;3.90;;;14.40;99.90;;;;;;5072577;28;20470;-79
2022/11/10 09:21:36;;;;;;;4.10;3.70;;;14.50;99.90;;;;;;5073116;28;20959;-80
2022/11/10 09:24:03;;;;;;;8.43;4.20;;;14.50;99.90;;;;;;5072830;28;20466;-80
2022/11/10 09:26:31;;;;;;;9.90;4.97;;;14.50;99.90;;;;;;5072302;28;20470;-81
2022/11/10 09:28:58;;;;;;;6.10;4.60;;;14.60;99.90;;;;;;5072874;28;20902;-77
2022/11/10 09:31:25;;;;;;;8.60;4.40;;;14.60;99.90;;;;;;5073325;28;20573;-81
2022/11/10 09:33:52;;;;;;;6.47;4.77;;;14.60;99.90;;;;;;5073313;28;20508;-78
2022/11/10 09:36:19;;;;;;;8.23;5.00;;;14.60;99.90;;;;;;5073655;28;20466;-80
2022/11/10 09:38:47;;;;;;;9.90;5.87;;;14.60;99.90;;;;;;5073073;28;20597;-78
2022/11/10 09:41:15;;;;;;;6.40;4.00;;;14.70;99.90;;;;;;5073198;28;20577;-80
2022/11/10 09:43:47;;;;;;;6.10;5.00;;;14.70;99.90;;;;;;5073727;28;20474;-80
2022/11/10 09:46:19;;;;;;;7.60;4.40;;;14.70;99.90;;;;;;5073767;28;20908;-80
2022/11/10 09:48:50;;;;;;;5.97;3.67;;;14.70;99.90;;;;;;5073711;28;20958;-81
2022/11/10 09:51:22;;;;;;;10.40;4.60;;;14.80;99.90;;;;;;5073438;28;21072;-80
2022/11/10 09:53:55;;;;;;;8.67;5.00;;;14.80;99.90;;;;;;5073841;28;20535;-80
2022/11/10 09:56:30;;;;;;;10.90;7.90;;;14.80;99.90;;;;;;5073292;28;20485;-80
2022/11/10 09:58:57;;;;;;;7.03;6.23;;;14.80;99.90;;;;;;5072207;28;21023;-79
2022/11/10 10:01:35;;;;;;;6.73;5.40;;;14.80;99.90;;;;;;5073638;28;20535;-77
2022/11/10 10:04:21;;;;;;;9.27;5.93;;;14.80;99.90;;;;;;5073243;28;20536;-77
2022/11/10 10:06:58;;;;;;;12.80;7.67;;;14.90;99.90;;;;;;5073759;28;20484;-81
2022/11/10 10:09:39;;;;;;;6.87;5.73;;;14.90;99.90;;;;;;5072451;28;20519;-78
2022/11/10 10:12:20;;;;;;;11.47;8.07;;;14.90;99.90;;;;;;5072634;28;20467;-77
2022/11/10 10:15:02;;;;;;;12.87;6.70;;;14.90;99.90;;;;;;5073469;28;20466;-80
2022/11/10 10:17:37;;;;;;;14.53;6.40;;;14.90;99.90;;;;;;5073030;28;20490;-80
2022/11/10 10:20:18;;;;;;;9.40;5.43;;;14.90;99.90;;;;;;5073758;28;20477;-80
2022/11/10 10:22:59;;;;;;;11.23;5.17;;;14.90;99.90;;;;;;5073254;28;20583;-77
2022/11/10 10:25:28;;;;;;;6.70;5.00;;;14.90;99.90;;;;;;5073556;28;20489;-77
2022/11/10 10:28:04;;;;;;;7.37;4.23;;;14.90;99.90;;;;;;5072896;28;20470;-77
2022/11/10 10:30:31;;;;;;;6.57;4.10;;;15.00;99.90;;;;;;5072788;28;20489;-77
2022/11/10 10:33:09;;;;;;;9.23;3.93;;;15.00;99.90;;;;;;5072172;28;20561;-77
2022/11/10 10:35:36;;;;;;;5.47;3.77;;;15.00;99.90;;;;;;5072348;28;20508;-80
2022/11/10 10:38:05;;;;;;;7.07;5.00;;;15.10;99.90;;;;;;5073255;28;20561;-80
2022/11/10 10:40:34;;;;;;;5.50;3.90;;;15.10;99.90;;;;;;5073285;28;20544;-80
2022/11/10 10:43:01;;;;;;;5.40;3.90;;;15.10;99.90;;;;;;5071922;28;20954;-77
2022/11/10 10:45:29;;;;;;;6.30;3.63;;;15.20;99.90;;;;;;5072861;28;20549;-81
2022/11/10 10:47:58;;;;;;;5.33;3.13;;;15.20;99.90;;;;;;5072425;28;20539;-77
2022/11/10 10:50:28;;;;;;;4.40;3.53;;;15.30;99.90;;;;;;5072052;28;20999;-80
2022/11/10 10:53:16;;;;;;;4.63;3.80;;;15.30;99.90;;;;;;5072447;28;20474;-80
2022/11/10 10:56:02;;;;;;;7.50;3.53;;;15.30;99.90;;;;;;5073250;28;20858;-80
2022/11/10 10:58:31;;;;;;;7.00;4.03;;;15.40;99.90;;;;;;5073316;28;20458;-77
2022/11/10 11:01:05;;;;;;;4.80;4.30;;;15.40;99.90;;;;;;5072581;28;20768;-80
2022/11/10 11:03:45;;;;;;;7.33;5.23;;;15.40;99.90;;;;;;5072923;28;20497;-77
2022/11/10 11:06:20;;;;;;;6.50;4.47;;;15.40;99.90;;;;;;5073650;28;20461;-80
2022/11/10 11:08:55;;;;;;;5.80;3.87;;;15.50;99.90;;;;;;5072864;28;20534;-81
2022/11/10 11:11:30;;;;;;;6.83;3.83;;;15.50;99.90;;;;;;5072813;28;20499;-80
2022/11/10 11:14:20;;;;;;;3.87;3.23;;;15.50;99.90;;;;;;5072415;28;20458;-77
2022/11/10 11:16:49;;;;;;;8.70;4.13;;;15.60;99.90;;;;;;5072246;28;20956;-77
2022/11/10 11:19:18;;;;;;;9.20;5.13;;;15.60;99.90;;;;;;5072510;28;20812;-77
2022/11/10 11:21:58;;;;;;;6.40;4.40;;;15.60;99.90;;;;;;5073797;28;20550;-77
2022/11/10 11:24:34;;;;;;;13.83;4.60;;;15.70;99.90;;;;;;5075721;28;20458;-77
2022/11/10 11:27:08;;;;;;;6.07;4.50;;;15.70;99.90;;;;;;5076314;28;20457;-77
2022/11/10 11:30:11;;;;;;;7.33;4.40;;;15.70;99.90;;;;;;5075430;28;20993;-80
2022/11/10 11:32:58;;;;;;;6.90;4.70;;;15.70;99.90;;;;;;5072579;28;20509;-80
2022/11/10 11:35:34;;;;;;;9.57;4.83;;;15.70;99.90;;;;;;5075181;28;20815;-76
2022/11/10 11:38:10;;;;;;;6.80;3.80;;;15.80;99.90;;;;;;5071439;28;20545;-77
2022/11/10 11:40:47;;;;;;;6.27;3.20;;;15.80;99.90;;;;;;5084938;28;20483;-77
2022/11/10 11:43:44;;;;;;;4.60;3.83;;;15.90;99.90;;;;;;5076681;28;20821;-80
2022/11/10 11:46:19;;;;;;;8.17;3.57;;;15.90;99.90;;;;;;5076032;28;20475;-77
2022/11/10 11:48:52;;;;;;;4.07;3.20;;;15.80;99.90;;;;;;5075598;28;20531;-80
2022/11/10 11:51:27;;;;;;;4.03;2.67;;;15.90;99.90;;;;;;5075232;28;20471;-81
2022/11/10 11:54:14;;;;;;;5.93;3.77;;;15.90;99.90;;;;;;5075966;28;20532;-81
2022/11/10 11:56:43;;;;;;;6.97;4.80;;;15.90;99.90;;;;;;5076435;28;20471;-81
2022/11/10 11:59:32;;;;;;;6.93;4.57;;;15.90;99.90;;;;;;5074580;28;20464;-80
2022/11/10 12:02:22;;;;;;;8.60;4.20;;;15.90;99.90;;;;;;5075172;28;20487;-77
2022/11/10 12:05:03;;;;;;;7.83;4.27;;;15.90;99.90;;;;;;5073781;28;20499;-77
2022/11/10 12:07:44;;;;;;;4.90;3.20;;;15.90;99.90;;;;;;5076145;28;20523;-75
2022/11/10 12:10:23;;;;;;;4.67;3.50;;;15.90;99.90;;;;;;5074365;28;20459;-79
2022/11/10 12:13:12;;;;;;;5.70;3.60;;;15.90;99.90;;;;;;5074958;28;20468;-77
2022/11/10 12:15:50;;;;;;;4.00;3.50;;;15.90;99.90;;;;;;5075585;28;20784;-80
2022/11/10 12:18:30;;;;;;;6.77;3.03;;;16.00;99.90;;;;;;5074956;28;20450;-79
2022/11/10 12:21:10;;;;;;;6.77;3.70;;;16.00;99.90;;;;;;5075211;28;20480;-79
2022/11/10 12:23:54;;;;;;;9.10;4.20;;;16.00;99.90;;;;;;5075473;28;20475;-80
2022/11/10 12:26:32;;;;;;;5.10;3.37;;;16.00;99.90;;;;;;5074654;28;20464;-77
2022/11/10 12:29:06;;;;;;;4.40;2.33;;;16.00;99.90;;;;;;5074020;28;20466;-76
2022/11/10 12:31:40;;;;;;;8.10;3.40;;;16.00;99.90;;;;;;5075398;28;20470;-79
2022/11/10 12:34:14;;;;;;;5.50;3.73;;;16.10;99.90;;;;;;5073374;28;20467;-79
2022/11/10 12:36:42;;;;;;;3.53;2.77;;;16.10;99.90;;;;;;5073709;28;20462;-76
2022/11/10 12:39:18;;;;;;;11.67;4.10;;;16.10;99.90;;;;;;5075292;28;20477;-76
2022/11/10 12:41:50;;;;;;;7.33;4.33;;;16.10;99.90;;;;;;5075720;28;20543;-75
2022/11/10 12:44:26;;;;;;;5.20;3.40;;;16.20;99.90;;;;;;5075216;28;20532;-77
2022/11/10 12:46:58;;;;;;;7.23;2.83;;;16.20;99.90;;;;;;5076837;28;20545;-80
2022/11/10 12:49:31;;;;;;;9.50;3.87;;;16.20;99.90;;;;;;5069403;28;20982;-80
2022/11/10 12:52:06;;;;;;;7.47;3.60;;;16.20;99.90;;;;;;5087618;28;20483;-77
2022/11/10 12:54:37;;;;;;;3.80;3.47;;;16.20;99.90;;;;;;5078477;28;20839;-80
2022/11/10 12:57:08;;;;;;;5.17;3.33;;;16.20;99.90;;;;;;5080056;28;20471;-79
2022/11/10 12:59:37;;;;;;;6.80;3.70;;;16.20;99.90;;;;;;5078417;28;20471;-75
2022/11/10 13:02:23;;;;;;;3.87;3.30;;;16.20;99.90;;;;;;5076967;28;20765;-76
2022/11/10 13:05:09;;;;;;;7.47;3.13;;;16.20;99.90;;;;;;5077530;28;20466;-76
2022/11/10 13:07:36;;;;;;;3.10;2.40;;;16.30;99.90;;;;;;5077474;28;20952;-76
2022/11/10 13:10:23;;;;;;;3.40;2.90;;;16.30;99.90;;;;;;5077549;28;20543;-77
2022/11/10 13:13:01;;;;;;;4.60;2.50;;;16.30;99.90;;;;;;5076174;28;20481;-79
2022/11/10 13:15:50;;;;;;;3.63;2.27;;;16.30;99.90;;;;;;5077916;28;20959;-77
2022/11/10 13:18:57;;;;;;;5.53;2.97;;;16.30;99.90;;;;;;5075187;28;20545;-80